createdAt,value
2019-05-07T00:04:55.123Z,0.70
2019-05-07T00:07:24.419Z,0.60
2019-05-07T00:09:53.760Z,0.90
2019-05-07T00:12:23.208Z,0.70
2019-05-07T00:15:00.934Z,0.63
2019-05-07T00:17:23.571Z,0.57
2019-05-07T00:19:52.847Z,0.63
2019-05-07T00:22:22.874Z,0.60
2019-05-07T00:24:53.193Z,0.50
2019-05-07T00:27:42.683Z,0.70
2019-05-07T00:33:26.228Z,0.70
2019-05-07T00:36:14.435Z,0.50
2019-05-07T00:41:36.240Z,0.50
2019-05-07T00:46:42.745Z,0.60
2019-05-07T00:49:12.796Z,0.67
2019-05-07T00:54:16.633Z,0.63
2019-05-07T00:56:45.927Z,0.50
2019-05-07T00:59:15.219Z,0.30
2019-05-07T01:01:44.543Z,0.50
2019-05-07T01:04:13.841Z,0.50
2019-05-07T01:06:43.205Z,0.57
2019-05-07T01:09:12.523Z,0.70
2019-05-07T01:12:02.979Z,0.40
2019-05-07T01:14:32.500Z,0.40
2019-05-07T01:19:53.045Z,0.57
2019-05-07T01:22:42.454Z,0.60
2019-05-07T01:25:12.897Z,0.50
2019-05-07T01:27:43.229Z,0.63
2019-05-07T01:30:52.877Z,0.60
2019-05-07T01:38:56.601Z,0.50
2019-05-07T01:41:25.886Z,0.43
2019-05-07T01:44:14.075Z,0.30
2019-05-07T01:46:43.374Z,0.53
2019-05-07T01:49:12.792Z,0.50
2019-05-07T01:51:42.392Z,0.47
2019-05-07T01:54:13.172Z,0.67
2019-05-07T01:56:42.826Z,0.70
2019-05-07T01:59:13.510Z,0.70
2019-05-07T02:04:38.186Z,0.63
2019-05-07T02:07:26.381Z,0.53
2019-05-07T02:10:14.590Z,0.63
2019-05-07T02:12:43.989Z,0.70
2019-05-07T02:15:13.478Z,0.47
2019-05-07T02:17:43.075Z,0.60
2019-05-07T02:20:13.883Z,0.60
2019-05-07T02:22:43.217Z,0.53
2019-05-07T02:25:12.836Z,0.70
2019-05-07T02:27:43.639Z,0.40
2019-05-07T02:33:08.438Z,0.60
2019-05-07T02:35:37.737Z,0.50
2019-05-07T02:38:25.941Z,1.00
2019-05-07T02:43:48.574Z,0.70
2019-05-07T02:52:13.568Z,0.50
2019-05-07T02:55:04.059Z,0.47
2019-05-07T02:57:33.946Z,0.47
2019-05-07T03:05:13.944Z,0.40
2019-05-07T03:08:03.326Z,0.37
2019-05-07T03:10:34.189Z,0.50
2019-05-07T03:13:04.225Z,0.50
2019-05-07T03:15:33.803Z,0.60
2019-05-07T03:18:03.678Z,0.40
2019-05-07T03:26:34.130Z,0.30
2019-05-07T03:32:16.141Z,0.50
2019-05-07T03:35:06.788Z,0.53
2019-05-07T03:37:36.549Z,0.40
2019-05-07T03:42:46.030Z,0.50
2019-05-07T03:45:34.250Z,0.50
2019-05-07T03:48:23.718Z,0.50
2019-05-07T03:50:53.495Z,0.67
2019-05-07T03:55:57.624Z,0.60
2019-05-07T03:58:26.951Z,0.50
2019-05-07T04:00:56.284Z,0.40
2019-05-07T04:03:25.580Z,0.40
2019-05-07T04:05:54.902Z,0.47
2019-05-07T04:08:24.204Z,0.30
2019-05-07T04:10:54.151Z,0.50
2019-05-07T04:13:24.686Z,0.50
2019-05-07T04:15:53.949Z,0.50
2019-05-07T04:18:43.707Z,0.43
2019-05-07T04:21:14.137Z,0.60
2019-05-07T04:23:44.374Z,0.50
2019-05-07T04:26:39.499Z,0.50
2019-05-07T04:29:13.255Z,0.60
2019-05-07T04:31:43.960Z,0.40
2019-05-07T04:36:54.453Z,0.60
2019-05-07T04:39:23.764Z,0.50
2019-05-07T04:41:53.324Z,0.60
2019-05-07T04:44:24.088Z,0.60
2019-05-07T04:46:53.614Z,0.40
2019-05-07T04:49:24.436Z,0.80
2019-05-07T04:52:15.368Z,0.40
2019-05-07T04:54:43.979Z,0.90
2019-05-07T04:57:33.661Z,0.70
2019-05-07T05:03:15.004Z,0.50
2019-05-07T05:05:44.354Z,0.80
2019-05-07T05:08:32.783Z,0.60
2019-05-07T05:11:03.390Z,0.60
2019-05-07T05:13:33.402Z,0.60
2019-05-07T05:19:13.254Z,0.70
2019-05-07T05:22:02.001Z,0.80
2019-05-07T05:27:12.191Z,0.70
2019-05-07T05:29:42.991Z,0.50
2019-05-07T05:32:13.242Z,0.60
2019-05-07T05:34:42.710Z,0.60
2019-05-07T05:37:12.097Z,0.47
2019-05-07T05:39:42.589Z,0.63
2019-05-07T05:45:35.693Z,0.70
2019-05-07T05:51:03.117Z,0.50
2019-05-07T05:59:37.039Z,0.50
2019-05-07T06:10:29.824Z,0.47
2019-05-07T06:16:02.944Z,0.50
2019-05-07T06:18:52.542Z,0.60
2019-05-07T06:26:44.649Z,0.50
2019-05-07T06:29:13.952Z,0.60
2019-05-07T06:34:34.226Z,0.50
2019-05-07T06:37:04.220Z,0.50
2019-05-07T06:42:33.766Z,0.33
2019-05-07T06:48:02.994Z,0.47
2019-05-07T06:50:32.825Z,0.50
2019-05-07T06:53:02.799Z,0.60
2019-05-07T06:55:33.203Z,0.43
2019-05-07T07:04:04.977Z,0.70
2019-05-07T07:06:53.217Z,0.50
2019-05-07T07:14:42.376Z,0.47
2019-05-07T07:17:12.947Z,0.50
2019-05-07T07:19:43.033Z,0.60
2019-05-07T07:22:12.992Z,0.60
2019-05-07T07:24:43.428Z,0.60
2019-05-07T07:27:13.263Z,0.40
2019-05-07T07:41:02.112Z,0.50
2019-05-07T07:43:32.557Z,0.40
2019-05-07T07:46:02.221Z,0.57
2019-05-07T07:48:33.001Z,0.40
2019-05-07T07:51:03.218Z,0.50
2019-05-07T07:53:35.538Z,0.50
2019-05-07T07:56:23.339Z,0.70
2019-05-07T07:59:12.630Z,0.43
2019-05-07T08:02:01.866Z,0.47
2019-05-07T08:04:32.552Z,0.50
2019-05-07T08:07:22.825Z,0.50
2019-05-07T08:09:52.144Z,0.50
2019-05-07T08:12:22.179Z,0.60
2019-05-07T08:14:52.509Z,0.40
2019-05-07T08:17:22.559Z,0.37
2019-05-07T08:19:52.960Z,0.50
2019-05-07T08:22:22.793Z,0.40
2019-05-07T08:24:53.513Z,0.70
2019-05-07T08:27:22.841Z,0.60
2019-05-07T08:29:52.588Z,0.70
2019-05-07T08:32:42.690Z,0.40
2019-05-07T08:38:07.346Z,0.50
2019-05-07T08:43:24.954Z,0.50
2019-05-07T08:46:32.823Z,0.47
2019-05-07T08:49:14.927Z,0.50
2019-05-07T08:51:44.259Z,0.57
2019-05-07T08:54:13.597Z,0.33
2019-05-07T08:56:54.274Z,0.70
2019-05-07T08:59:23.786Z,0.60
2019-05-07T09:01:53.092Z,0.40
2019-05-07T09:04:22.389Z,0.40
2019-05-07T09:06:52.007Z,0.43
2019-05-07T09:09:22.704Z,0.57
2019-05-07T09:11:52.003Z,0.50
2019-05-07T09:14:24.462Z,0.50
2019-05-07T09:17:04.188Z,0.60
2019-05-07T09:19:47.182Z,0.60
2019-05-07T09:22:05.113Z,0.47
2019-05-07T09:24:34.447Z,0.60
2019-05-07T09:27:22.762Z,0.30
2019-05-07T09:32:58.504Z,0.60
2019-05-07T09:35:46.814Z,0.47
2019-05-07T09:40:57.092Z,0.60
2019-05-07T09:43:39.714Z,0.50
2019-05-07T09:46:09.035Z,0.40
2019-05-07T09:48:38.346Z,0.50
2019-05-07T09:51:07.687Z,0.40
2019-05-07T09:53:36.978Z,0.60
2019-05-07T09:59:05.780Z,0.60
2019-05-07T10:01:35.117Z,0.50
2019-05-07T10:04:04.523Z,0.50
2019-05-07T10:06:33.876Z,0.50
2019-05-07T10:09:03.281Z,0.50
2019-05-07T10:14:13.566Z,0.50
2019-05-07T10:17:02.735Z,0.30
2019-05-07T10:19:33.035Z,0.83
2019-05-07T10:22:02.448Z,0.70
2019-05-07T10:27:27.357Z,0.80
2019-05-07T10:29:56.676Z,0.50
2019-05-07T10:32:25.986Z,0.50
2019-05-07T10:34:55.309Z,0.60
2019-05-07T10:37:24.622Z,0.80
2019-05-07T10:39:53.942Z,0.60
2019-05-07T10:42:43.114Z,0.60
2019-05-07T10:45:32.414Z,0.60
2019-05-07T10:48:22.073Z,0.53
2019-05-07T10:50:53.138Z,0.70
2019-05-07T10:53:22.934Z,0.60
2019-05-07T10:55:53.475Z,0.47
2019-05-07T10:58:22.787Z,0.67
2019-05-07T11:00:52.342Z,0.40
2019-05-07T11:03:23.205Z,0.43
2019-05-07T11:05:52.678Z,0.50
2019-05-07T11:08:22.244Z,0.57
2019-05-07T11:11:10.612Z,0.30
2019-05-07T11:13:42.109Z,0.37
2019-05-07T11:19:02.061Z,0.53
2019-05-07T11:21:33.392Z,0.53
2019-05-07T11:24:03.381Z,0.50
2019-05-07T11:26:33.683Z,0.50
2019-05-07T11:29:02.957Z,0.30
2019-05-07T11:31:33.055Z,0.40
2019-05-07T11:36:52.383Z,0.67
2019-05-07T11:42:29.883Z,0.50
2019-05-07T11:44:59.201Z,0.50
2019-05-07T11:50:39.432Z,0.50
2019-05-07T11:53:10.195Z,0.50
2019-05-07T11:55:39.484Z,0.50
2019-05-07T11:58:08.787Z,0.60
2019-05-07T12:00:56.984Z,0.60
2019-05-07T12:03:26.353Z,0.30
2019-05-07T12:05:55.636Z,0.30
2019-05-07T12:08:37.614Z,0.50
2019-05-07T12:10:55.958Z,0.40
2019-05-07T12:13:25.283Z,0.50
2019-05-07T12:15:54.593Z,0.70
2019-05-07T12:18:23.906Z,0.40
2019-05-07T12:20:54.231Z,0.57
2019-05-07T12:23:24.235Z,0.60
2019-05-07T12:25:53.537Z,0.50
2019-05-07T12:28:23.045Z,0.40
2019-05-07T12:31:12.148Z,0.40
2019-05-07T12:34:02.589Z,0.40
2019-05-07T12:36:32.217Z,0.33
2019-05-07T12:39:02.223Z,0.40
2019-05-07T12:41:34.253Z,0.50
2019-05-07T12:44:44.061Z,0.43
2019-05-07T12:47:13.362Z,0.40
2019-05-07T12:49:42.977Z,0.40
2019-05-07T12:55:28.827Z,0.70
2019-05-07T12:57:58.141Z,0.47
2019-05-07T13:01:06.842Z,0.60
2019-05-07T13:03:38.606Z,0.73
2019-05-07T13:06:07.898Z,0.43
2019-05-07T13:08:37.217Z,0.60
2019-05-07T13:11:06.521Z,0.50
2019-05-07T13:13:35.827Z,0.50
2019-05-07T13:16:05.211Z,0.40
2019-05-07T13:18:34.508Z,0.50
2019-05-07T13:21:03.835Z,0.50
2019-05-07T13:23:52.236Z,0.40
2019-05-07T13:26:24.344Z,0.80
2019-05-07T13:28:53.138Z,0.50
2019-05-07T13:32:03.058Z,0.63
2019-05-07T13:35:11.922Z,0.50
2019-05-07T13:40:47.375Z,0.73
2019-05-07T13:46:16.462Z,0.50
2019-05-07T13:54:42.298Z,0.50
2019-05-07T13:57:12.100Z,0.60
2019-05-07T13:59:42.629Z,0.40
2019-05-07T14:02:15.367Z,0.70
2019-05-07T14:10:08.917Z,0.70
2019-05-07T14:13:17.698Z,0.40
2019-05-07T14:19:14.793Z,0.50
2019-05-07T14:21:44.105Z,0.53
2019-05-07T14:24:14.831Z,0.57
2019-05-07T14:26:44.610Z,0.60
2019-05-07T14:29:13.941Z,0.60
2019-05-07T14:31:43.316Z,0.67
2019-05-07T14:34:34.720Z,0.50
2019-05-07T14:37:22.096Z,0.70
2019-05-07T14:39:52.452Z,0.70
2019-05-07T14:45:45.191Z,0.50
2019-05-07T14:48:14.471Z,0.70
2019-05-07T14:50:45.034Z,0.77
2019-05-07T14:53:14.812Z,0.90
2019-05-07T14:55:44.097Z,0.73
2019-05-07T14:58:13.404Z,0.70
2019-05-07T15:01:02.439Z,0.70
2019-05-07T15:06:34.323Z,0.80
2019-05-07T15:09:04.908Z,0.60
2019-05-07T15:14:09.542Z,1.20
2019-05-07T15:16:38.851Z,0.73
2019-05-07T15:19:08.130Z,0.90
2019-05-07T15:21:37.589Z,0.70
2019-05-07T15:24:06.900Z,0.70
2019-05-07T15:26:36.220Z,1.10
2019-05-07T15:32:12.582Z,1.10
2019-05-07T15:34:42.222Z,0.80
2019-05-07T15:37:13.033Z,1.27
2019-05-07T15:40:02.426Z,0.80
2019-05-07T15:42:32.871Z,0.83
2019-05-07T15:45:03.618Z,1.00
2019-05-07T15:50:17.928Z,1.00
2019-05-07T15:53:06.119Z,1.10
2019-05-07T15:55:35.426Z,0.80
2019-05-07T15:58:04.827Z,0.90
2019-05-07T16:03:33.366Z,0.80
2019-05-07T16:06:03.823Z,1.50
2019-05-07T16:11:25.517Z,0.70
2019-05-07T16:14:14.643Z,0.80
2019-05-07T16:16:46.488Z,0.80
2019-05-07T16:24:59.466Z,0.80
2019-05-07T16:27:28.705Z,0.90
2019-05-07T16:29:58.026Z,0.80
2019-05-07T16:32:27.358Z,0.60
2019-05-07T16:34:56.670Z,0.87
2019-05-07T16:37:44.853Z,0.83
2019-05-07T16:40:34.601Z,1.27
2019-05-07T16:43:03.886Z,0.83
2019-05-07T16:45:33.178Z,0.80
2019-05-07T16:48:03.199Z,1.10
2019-05-07T16:50:33.543Z,1.00
2019-05-07T16:53:03.029Z,1.27
2019-05-07T16:55:52.268Z,0.70
2019-05-07T17:01:22.535Z,1.30
2019-05-07T17:03:58.866Z,0.80
2019-05-07T17:06:28.184Z,1.00
2019-05-07T17:14:30.273Z,1.10
2019-05-07T17:16:59.565Z,0.90
2019-05-07T17:19:28.934Z,1.10
2019-05-07T17:21:58.298Z,1.00
2019-05-07T17:24:27.601Z,0.90
2019-05-07T17:26:56.891Z,1.03
2019-05-07T17:29:26.197Z,0.90
2019-05-07T17:31:55.501Z,0.97
2019-05-07T17:34:43.699Z,1.03
2019-05-07T17:40:03.115Z,0.83
2019-05-07T17:42:32.855Z,1.20
2019-05-07T17:47:44.346Z,0.73
2019-05-07T17:53:50.441Z,0.60
2019-05-07T17:56:12.787Z,0.77
2019-05-07T17:58:43.225Z,0.97
2019-05-07T18:01:12.549Z,0.90
2019-05-07T18:03:42.781Z,0.90
2019-05-07T18:08:48.339Z,0.90
2019-05-07T18:11:32.429Z,1.00
2019-05-07T18:14:07.578Z,1.47
2019-05-07T18:16:55.771Z,1.13
2019-05-07T18:22:15.087Z,0.73
2019-05-07T18:24:44.382Z,0.70
2019-05-07T18:27:33.103Z,1.00
2019-05-07T18:30:04.065Z,1.30
2019-05-07T18:35:36.729Z,0.97
2019-05-07T18:38:06.027Z,0.90
2019-05-07T18:40:35.337Z,1.33
2019-05-07T18:43:04.731Z,1.03
2019-05-07T18:45:34.155Z,1.30
2019-05-07T18:48:03.469Z,1.03
2019-05-07T18:50:32.956Z,1.07
2019-05-07T18:53:02.891Z,0.90
2019-05-07T18:55:45.350Z,1.30
2019-05-07T18:58:14.684Z,1.10
2019-05-07T19:01:07.827Z,0.90
2019-05-07T19:03:37.130Z,1.20
2019-05-07T19:06:06.641Z,1.07
2019-05-07T19:08:35.926Z,0.90
2019-05-07T19:11:05.855Z,0.90
2019-05-07T19:13:36.233Z,1.10
2019-05-07T19:19:06.769Z,1.00
2019-05-07T19:21:55.103Z,0.80
2019-05-07T19:27:44.833Z,1.10
2019-05-07T19:33:12.371Z,0.70
2019-05-07T19:41:16.765Z,0.83
2019-05-07T19:44:04.964Z,1.23
2019-05-07T19:46:34.283Z,1.00
2019-05-07T19:49:03.599Z,0.90
2019-05-07T19:51:33.205Z,1.00
2019-05-07T19:54:02.520Z,0.90
2019-05-07T19:59:06.472Z,0.70
2019-05-07T20:04:16.116Z,0.87
2019-05-07T20:06:45.434Z,0.77
2019-05-07T20:09:32.337Z,1.00
2019-05-07T20:12:20.257Z,0.70
2019-05-07T20:14:51.631Z,0.70
2019-05-07T20:17:22.100Z,0.87
2019-05-07T20:19:52.709Z,0.90
2019-05-07T20:25:19.277Z,1.33
2019-05-07T20:27:48.380Z,0.70
2019-05-07T20:30:17.807Z,0.80
2019-05-07T20:32:47.212Z,0.90
2019-05-07T20:35:16.501Z,0.87
2019-05-07T20:37:45.839Z,0.87
2019-05-07T20:40:34.173Z,0.87
2019-05-07T20:43:03.512Z,1.00
2019-05-07T20:45:32.824Z,0.90
2019-05-07T20:48:02.639Z,0.87
2019-05-07T20:50:52.187Z,1.60
2019-05-07T20:53:42.313Z,0.80
2019-05-07T20:58:48.171Z,0.80
2019-05-07T21:01:17.512Z,0.67
2019-05-07T21:03:46.793Z,0.90
2019-05-07T21:06:16.112Z,0.90
2019-05-07T21:08:45.405Z,1.07
2019-05-07T21:11:14.706Z,0.67
2019-05-07T21:13:44.588Z,0.90
2019-05-07T21:16:15.013Z,1.00
2019-05-07T21:18:44.293Z,1.00
2019-05-07T21:21:13.623Z,0.83
2019-05-07T21:24:22.648Z,0.90
2019-05-07T21:27:04.508Z,1.30
2019-05-07T21:29:33.780Z,0.83
2019-05-07T21:32:23.154Z,0.90
2019-05-07T21:34:53.050Z,0.83
2019-05-07T21:37:23.047Z,0.70
2019-05-07T21:39:53.388Z,1.00
2019-05-07T21:42:23.048Z,1.00
2019-05-07T21:44:53.675Z,1.00
2019-05-07T21:47:22.967Z,1.03
2019-05-07T21:49:54.210Z,1.07
2019-05-07T21:55:38.296Z,1.00
2019-05-07T21:58:26.473Z,0.80
2019-05-07T22:06:33.868Z,0.90
2019-05-07T22:09:03.317Z,0.90
2019-05-07T22:11:32.698Z,0.93
2019-05-07T22:16:36.825Z,1.00
2019-05-07T22:19:25.288Z,0.77
2019-05-07T22:21:54.610Z,0.97
2019-05-07T22:24:23.885Z,0.70
2019-05-07T22:26:53.174Z,0.97
2019-05-07T22:29:22.838Z,0.83
2019-05-07T22:35:04.203Z,0.80
2019-05-07T22:37:33.500Z,0.80
2019-05-07T22:40:02.962Z,1.00
2019-05-07T22:42:32.785Z,1.20
2019-05-07T22:45:03.372Z,1.00
2019-05-07T22:47:32.750Z,0.83
2019-05-07T22:52:55.765Z,0.90
2019-05-07T22:58:32.620Z,0.93
2019-05-07T23:03:55.471Z,1.27
2019-05-07T23:06:24.763Z,1.00
2019-05-07T23:08:54.025Z,0.87
2019-05-07T23:11:23.365Z,0.90
2019-05-07T23:13:54.871Z,1.00
2019-05-07T23:16:23.656Z,0.87
2019-05-07T23:18:52.939Z,1.23
2019-05-07T23:21:24.283Z,1.07
2019-05-07T23:23:53.205Z,0.93
2019-05-07T23:26:23.381Z,1.17
2019-05-07T23:28:53.492Z,1.10
2019-05-07T23:31:23.024Z,0.90
2019-05-07T23:33:53.798Z,1.03
2019-05-07T23:36:23.063Z,1.00
2019-05-07T23:38:52.440Z,0.93
2019-05-07T23:41:42.077Z,1.13
2019-05-07T23:44:30.616Z,0.97
2019-05-07T23:46:59.938Z,1.10
2019-05-07T23:49:29.218Z,1.10
2019-05-07T23:51:58.492Z,1.40
2019-05-07T23:54:27.769Z,1.00
2019-05-07T23:57:05.856Z,1.07
2019-05-07T23:59:28.048Z,1.07
